createdAt,value
2022-12-08T00:01:22.258Z,91.86
2022-12-08T00:03:49.545Z,91.92
2022-12-08T00:06:44.826Z,91.99
2022-12-08T00:09:22.166Z,92.19
2022-12-08T00:11:58.082Z,92.63
2022-12-08T00:14:37.678Z,92.74
2022-12-08T00:17:06.686Z,92.52
2022-12-08T00:19:34.277Z,92.44
2022-12-08T00:22:01.773Z,92.56
2022-12-08T00:24:35.061Z,92.36
2022-12-08T00:27:02.853Z,92.18
2022-12-08T00:29:29.852Z,92.06
2022-12-08T00:31:57.099Z,92.16
2022-12-08T00:34:24.170Z,92.19
2022-12-08T00:36:51.297Z,92.54
2022-12-08T00:39:18.887Z,92.14
2022-12-08T00:42:04.398Z,92.31
2022-12-08T00:44:31.619Z,92.46
2022-12-08T00:46:58.977Z,92.42
2022-12-08T00:49:25.897Z,92.67
2022-12-08T00:51:53.032Z,92.61
2022-12-08T00:54:20.805Z,93.00
2022-12-08T00:56:48.049Z,93.07
2022-12-08T00:59:15.240Z,92.89
2022-12-08T01:01:45.433Z,93.21
2022-12-08T01:04:17.571Z,93.24
2022-12-08T01:06:45.268Z,93.27
2022-12-08T01:09:13.803Z,93.27
2022-12-08T01:11:40.962Z,93.41
2022-12-08T01:14:07.812Z,93.37
2022-12-08T01:16:36.976Z,92.96
2022-12-08T01:19:04.319Z,92.86
2022-12-08T01:21:31.337Z,92.70
2022-12-08T01:24:00.166Z,92.71
2022-12-08T01:26:27.166Z,92.82
2022-12-08T01:28:54.708Z,92.75
2022-12-08T01:31:24.371Z,92.81
2022-12-08T01:33:51.364Z,92.96
2022-12-08T01:36:24.917Z,92.75
2022-12-08T01:38:52.940Z,92.79
2022-12-08T01:41:23.000Z,92.82
2022-12-08T01:44:08.945Z,92.70
2022-12-08T01:46:39.132Z,92.46
2022-12-08T01:49:23.168Z,92.37
2022-12-08T01:52:03.665Z,92.55
2022-12-08T01:54:37.084Z,92.53
2022-12-08T01:57:10.195Z,92.33
2022-12-08T01:59:42.025Z,92.34
2022-12-08T02:02:11.559Z,92.01
2022-12-08T02:04:38.891Z,92.05
2022-12-08T02:07:08.504Z,91.99
2022-12-08T02:09:38.594Z,92.11
2022-12-08T02:12:05.815Z,91.76
2022-12-08T02:14:52.716Z,91.74
2022-12-08T02:17:37.436Z,91.84
2022-12-08T02:20:29.533Z,92.05
2022-12-08T02:23:05.374Z,91.63
2022-12-08T02:25:38.330Z,91.73
2022-12-08T02:28:35.585Z,91.72
2022-12-08T02:31:28.116Z,91.72
2022-12-08T02:34:10.881Z,91.89
2022-12-08T02:36:49.278Z,92.09
2022-12-08T02:39:55.574Z,91.95
2022-12-08T02:42:47.067Z,91.93
2022-12-08T02:45:30.277Z,92.00
2022-12-08T02:47:59.201Z,93.14
2022-12-08T02:50:27.677Z,93.59
2022-12-08T02:52:54.896Z,93.67
2022-12-08T02:55:29.556Z,93.50
2022-12-08T02:58:11.817Z,93.88
2022-12-08T03:00:57.296Z,93.95
2022-12-08T03:03:35.729Z,93.94
2022-12-08T03:06:09.373Z,94.14
2022-12-08T03:08:51.803Z,94.21
2022-12-08T03:11:31.857Z,94.23
2022-12-08T03:14:01.825Z,94.30
2022-12-08T03:16:30.831Z,94.29
2022-12-08T03:19:12.078Z,94.23
2022-12-08T03:21:41.340Z,93.96
2022-12-08T03:24:10.868Z,93.77
2022-12-08T03:26:50.235Z,93.65
2022-12-08T03:29:18.056Z,93.59
2022-12-08T03:31:54.200Z,93.90
2022-12-08T03:34:23.576Z,93.84
2022-12-08T03:36:50.478Z,93.86
2022-12-08T03:39:17.407Z,93.81
2022-12-08T03:41:45.597Z,93.80
2022-12-08T03:44:12.628Z,93.91
2022-12-08T03:46:39.653Z,93.71
2022-12-08T03:49:06.837Z,93.41
2022-12-08T03:51:33.814Z,93.45
2022-12-08T03:54:00.848Z,93.51
2022-12-08T03:56:37.305Z,93.92
2022-12-08T03:59:05.603Z,93.72
2022-12-08T04:01:33.004Z,93.48
2022-12-08T04:04:00.189Z,93.48
2022-12-08T04:06:27.154Z,93.64
2022-12-08T04:08:54.209Z,93.53
2022-12-08T04:11:21.447Z,93.56
2022-12-08T04:13:48.782Z,93.49
2022-12-08T04:16:19.085Z,93.43
2022-12-08T04:18:46.226Z,93.56
2022-12-08T04:21:13.712Z,94.64
2022-12-08T04:23:40.707Z,94.71
2022-12-08T04:26:08.017Z,95.27
2022-12-08T04:28:35.366Z,95.53
2022-12-08T04:31:02.975Z,95.48
2022-12-08T04:33:29.974Z,95.38
2022-12-08T04:35:56.970Z,95.43
2022-12-08T04:38:24.099Z,95.20
2022-12-08T04:40:51.035Z,94.91
2022-12-08T04:43:18.177Z,94.81
2022-12-08T04:45:48.127Z,94.96
2022-12-08T04:48:15.579Z,94.57
2022-12-08T04:50:44.391Z,94.90
2022-12-08T04:53:13.097Z,94.50
2022-12-08T04:55:45.029Z,94.35
2022-12-08T04:58:14.089Z,94.29
2022-12-08T05:00:41.890Z,94.26
2022-12-08T05:03:09.415Z,94.33
2022-12-08T05:05:36.441Z,93.93
2022-12-08T05:08:03.527Z,93.67
2022-12-08T05:10:30.455Z,93.67
2022-12-08T05:12:58.822Z,93.41
2022-12-08T05:15:25.871Z,93.32
2022-12-08T05:17:53.167Z,93.13
2022-12-08T05:20:20.103Z,93.36
2022-12-08T05:22:47.259Z,93.26
2022-12-08T05:25:15.016Z,93.17
2022-12-08T05:27:43.163Z,93.08
2022-12-08T05:30:11.064Z,93.22
2022-12-08T05:32:37.957Z,92.73
2022-12-08T05:35:05.570Z,92.32
2022-12-08T05:37:32.465Z,91.96
2022-12-08T05:39:59.325Z,91.48
2022-12-08T05:42:26.336Z,91.30
2022-12-08T05:44:53.381Z,91.45
2022-12-08T05:47:20.556Z,91.22
2022-12-08T05:49:47.755Z,91.17
2022-12-08T05:52:16.894Z,91.24
2022-12-08T05:54:44.322Z,91.14
2022-12-08T05:57:11.657Z,91.19
2022-12-08T05:59:39.762Z,91.40
2022-12-08T06:02:08.868Z,91.50
2022-12-08T06:04:36.755Z,91.44
2022-12-08T06:07:03.772Z,91.68
2022-12-08T06:09:31.017Z,92.29
2022-12-08T06:11:57.919Z,92.55
2022-12-08T06:14:25.528Z,92.46
2022-12-08T06:16:52.901Z,92.48
2022-12-08T06:19:20.363Z,92.34
2022-12-08T06:21:47.202Z,92.96
2022-12-08T06:24:15.498Z,93.43
2022-12-08T06:26:43.460Z,93.73
2022-12-08T06:29:10.611Z,93.75
2022-12-08T06:31:37.594Z,93.90
2022-12-08T06:34:05.010Z,93.86
2022-12-08T06:36:32.334Z,93.69
2022-12-08T06:39:00.599Z,93.73
2022-12-08T06:41:27.691Z,93.55
2022-12-08T06:43:58.079Z,93.13
2022-12-08T06:46:25.423Z,93.20
2022-12-08T06:48:53.220Z,92.97
2022-12-08T06:51:23.815Z,92.91
2022-12-08T06:53:50.893Z,92.69
2022-12-08T06:56:20.379Z,92.79
2022-12-08T06:58:52.560Z,92.84
2022-12-08T07:01:20.574Z,92.84
2022-12-08T07:03:48.095Z,92.52
2022-12-08T07:06:18.220Z,92.43
2022-12-08T07:08:45.348Z,92.15
2022-12-08T07:11:18.071Z,91.85
2022-12-08T07:13:48.254Z,91.69
2022-12-08T07:16:15.433Z,91.88
2022-12-08T07:18:44.053Z,91.84
2022-12-08T07:21:13.363Z,91.64
2022-12-08T07:23:40.844Z,91.68
2022-12-08T07:26:10.529Z,91.86
2022-12-08T07:28:39.035Z,91.75
2022-12-08T07:31:07.276Z,91.69
2022-12-08T07:33:36.068Z,91.69
2022-12-08T07:36:06.847Z,91.74
2022-12-08T07:38:34.262Z,91.45
2022-12-08T07:41:01.628Z,91.06
2022-12-08T07:43:28.957Z,91.18
2022-12-08T07:45:56.427Z,91.00
2022-12-08T07:48:23.477Z,91.03
2022-12-08T07:50:50.770Z,90.96
2022-12-08T07:53:17.841Z,90.72
2022-12-08T07:55:45.069Z,90.78
2022-12-08T07:58:12.282Z,90.78
2022-12-08T08:00:39.300Z,90.51
2022-12-08T08:03:06.635Z,90.81
2022-12-08T08:05:33.806Z,90.52
2022-12-08T08:08:00.825Z,90.18
2022-12-08T08:10:28.538Z,89.93
2022-12-08T08:12:59.809Z,90.37
2022-12-08T08:15:27.765Z,90.20
2022-12-08T08:17:54.729Z,90.39
2022-12-08T08:20:22.342Z,90.14
2022-12-08T08:22:51.657Z,90.18
2022-12-08T08:25:20.461Z,90.35
2022-12-08T08:27:49.233Z,89.79
2022-12-08T08:30:20.380Z,89.52
2022-12-08T08:32:50.020Z,88.86
2022-12-08T08:35:17.073Z,88.35
2022-12-08T08:37:48.805Z,87.68
2022-12-08T08:40:18.129Z,86.95
2022-12-08T08:42:45.315Z,86.51
2022-12-08T08:45:12.497Z,86.24
2022-12-08T08:47:39.553Z,86.43
2022-12-08T08:50:07.654Z,86.02
2022-12-08T08:52:34.870Z,86.21
2022-12-08T08:55:02.101Z,85.89
2022-12-08T08:57:31.103Z,86.54
2022-12-08T08:59:57.982Z,86.69
2022-12-08T09:02:26.033Z,86.28
2022-12-08T09:04:53.461Z,86.32
2022-12-08T09:07:20.513Z,85.35
2022-12-08T09:09:47.933Z,84.84
2022-12-08T09:12:15.053Z,84.20
2022-12-08T09:14:41.987Z,84.06
2022-12-08T09:17:10.050Z,83.53
2022-12-08T09:19:37.309Z,83.21
2022-12-08T09:22:06.014Z,82.31
2022-12-08T09:24:33.205Z,81.42
2022-12-08T09:27:00.347Z,81.35
2022-12-08T09:29:32.524Z,80.30
2022-12-08T09:32:03.777Z,79.61
2022-12-08T09:34:31.848Z,79.26
2022-12-08T09:36:59.963Z,78.27
2022-12-08T09:39:27.267Z,78.03
2022-12-08T09:42:01.253Z,78.08
2022-12-08T09:44:50.660Z,77.77
2022-12-08T09:47:35.304Z,77.45
2022-12-08T09:50:27.810Z,77.34
2022-12-08T09:53:03.995Z,77.47
2022-12-08T09:56:03.990Z,77.36
2022-12-08T09:58:56.543Z,77.75
2022-12-08T10:01:29.918Z,77.66
2022-12-08T10:03:57.209Z,77.13
2022-12-08T10:06:39.569Z,77.02
2022-12-08T10:09:42.843Z,76.68
2022-12-08T10:12:22.505Z,76.59
2022-12-08T10:15:22.983Z,76.23
2022-12-08T10:17:51.341Z,75.65
2022-12-08T10:20:24.669Z,75.56
2022-12-08T10:23:07.354Z,75.56
2022-12-08T10:25:43.165Z,75.17
2022-12-08T10:28:11.916Z,75.03
2022-12-08T10:30:39.400Z,74.46
2022-12-08T10:33:14.199Z,74.27
2022-12-08T10:35:51.296Z,74.03
2022-12-08T10:38:19.905Z,73.86
2022-12-08T10:40:48.572Z,73.69
2022-12-08T10:43:21.742Z,73.25
2022-12-08T10:45:49.386Z,73.37
2022-12-08T10:48:16.238Z,73.13
2022-12-08T10:50:47.252Z,72.77
2022-12-08T10:53:20.958Z,72.92
2022-12-08T10:55:51.810Z,72.86
2022-12-08T10:58:41.222Z,72.83
2022-12-08T11:01:21.211Z,73.12
2022-12-08T11:03:59.327Z,73.42
2022-12-08T11:06:37.054Z,73.48
2022-12-08T11:09:24.169Z,73.41
2022-12-08T11:12:07.517Z,73.50
2022-12-08T11:14:43.722Z,73.48
2022-12-08T11:17:10.936Z,73.06
2022-12-08T11:19:40.375Z,72.95
2022-12-08T11:22:27.761Z,72.71
2022-12-08T11:25:12.857Z,73.14
2022-12-08T11:27:46.589Z,72.93
2022-12-08T11:30:20.363Z,72.74
2022-12-08T11:32:51.121Z,72.29
2022-12-08T11:35:30.225Z,72.14
2022-12-08T11:38:21.627Z,71.57
2022-12-08T11:40:54.551Z,71.24
2022-12-08T11:43:30.971Z,71.38
2022-12-08T11:46:02.496Z,71.14
2022-12-08T11:48:37.407Z,70.44
2022-12-08T11:51:14.462Z,70.65
2022-12-08T11:53:47.476Z,70.01
2022-12-08T11:56:22.065Z,69.46
2022-12-08T11:58:58.631Z,69.09
2022-12-08T12:01:26.736Z,68.95
2022-12-08T12:04:12.637Z,68.91
2022-12-08T12:06:56.626Z,68.21
2022-12-08T12:09:38.851Z,68.00
2022-12-08T12:12:39.287Z,67.95
2022-12-08T12:15:25.804Z,67.63
2022-12-08T12:18:16.471Z,67.34
2022-12-08T12:20:52.141Z,67.27
2022-12-08T12:23:44.920Z,67.04
2022-12-08T12:26:21.814Z,66.85
2022-12-08T12:29:02.816Z,67.25
2022-12-08T12:31:43.481Z,67.16
2022-12-08T12:34:24.407Z,66.75
2022-12-08T12:37:03.606Z,66.68
2022-12-08T12:39:35.567Z,66.74
2022-12-08T12:42:05.136Z,66.69
2022-12-08T12:44:32.448Z,66.56
2022-12-08T12:47:01.680Z,65.85
2022-12-08T12:49:41.072Z,65.63
2022-12-08T12:52:18.169Z,65.58
2022-12-08T12:55:10.891Z,66.00
2022-12-08T12:57:55.880Z,65.53
2022-12-08T13:00:27.676Z,65.63
2022-12-08T13:02:58.897Z,66.16
2022-12-08T13:05:52.977Z,65.89
2022-12-08T13:08:27.848Z,66.42
2022-12-08T13:11:09.943Z,66.59
2022-12-08T13:13:38.828Z,66.81
2022-12-08T13:16:18.439Z,67.17
2022-12-08T13:18:58.018Z,66.91
2022-12-08T13:21:39.102Z,66.82
2022-12-08T13:24:13.218Z,66.54
2022-12-08T13:26:44.667Z,66.32
2022-12-08T13:29:19.623Z,66.52
2022-12-08T13:31:58.308Z,66.76
2022-12-08T13:34:45.998Z,67.00
2022-12-08T13:37:16.333Z,66.90
2022-12-08T13:39:55.741Z,67.45
2022-12-08T13:42:44.298Z,67.29
2022-12-08T13:53:35.022Z,67.37
2022-12-08T13:55:12.988Z,67.46
2022-12-08T13:57:33.193Z,67.43
2022-12-08T14:00:06.692Z,67.77
2022-12-08T14:02:47.696Z,68.15
2022-12-08T14:05:21.700Z,68.27
2022-12-08T14:07:56.404Z,68.38
2022-12-08T14:10:30.653Z,68.69
2022-12-08T14:13:04.895Z,69.05
2022-12-08T14:15:38.565Z,69.20
2022-12-08T14:18:07.327Z,69.59
2022-12-08T14:20:57.786Z,70.19
2022-12-08T14:23:22.679Z,70.40
2022-12-08T14:25:49.840Z,70.66
2022-12-08T14:28:17.195Z,70.74
2022-12-08T14:30:45.032Z,70.80
2022-12-08T14:33:15.324Z,71.15
2022-12-08T14:35:43.008Z,71.51
2022-12-08T14:38:18.970Z,71.94
2022-12-08T14:41:09.025Z,72.22
2022-12-08T14:43:36.271Z,72.33
2022-12-08T14:46:19.282Z,72.85
2022-12-08T14:48:46.707Z,73.11
2022-12-08T14:51:19.744Z,73.82
2022-12-08T14:54:08.726Z,74.38
2022-12-08T14:56:53.576Z,74.50
2022-12-08T14:59:30.312Z,74.78
2022-12-08T15:02:16.030Z,75.33
2022-12-08T15:04:45.997Z,75.48
2022-12-08T15:07:17.452Z,75.67
2022-12-08T15:09:50.492Z,75.86
2022-12-08T15:12:27.014Z,75.97
2022-12-08T15:14:59.347Z,76.18
2022-12-08T15:17:45.406Z,76.44
2022-12-08T15:20:50.309Z,76.57
2022-12-08T15:23:25.295Z,76.51
2022-12-08T15:25:54.229Z,77.36
2022-12-08T15:28:29.429Z,77.02
2022-12-08T15:30:57.966Z,77.05
2022-12-08T15:33:25.816Z,77.15
2022-12-08T15:35:53.133Z,77.68
2022-12-08T15:38:26.601Z,77.96
2022-12-08T15:40:54.540Z,78.57
2022-12-08T15:43:22.247Z,79.05
2022-12-08T15:45:58.505Z,79.32
2022-12-08T15:48:30.509Z,79.34
2022-12-08T15:50:58.439Z,79.45
2022-12-08T15:53:25.750Z,79.62
2022-12-08T15:56:25.949Z,79.67
2022-12-08T15:58:57.023Z,79.73
2022-12-08T16:01:25.792Z,79.83
2022-12-08T16:07:20.845Z,80.20
2022-12-08T16:09:41.448Z,80.66
2022-12-08T16:13:48.133Z,80.47
2022-12-08T16:18:24.064Z,81.04
2022-12-08T16:21:09.564Z,80.92
2022-12-08T16:23:46.026Z,80.74
2022-12-08T16:26:49.091Z,80.85
2022-12-08T16:29:07.745Z,80.81
2022-12-08T16:31:35.203Z,80.65
2022-12-08T16:34:02.461Z,80.86
2022-12-08T16:36:29.474Z,81.38
2022-12-08T16:38:57.862Z,80.54
2022-12-08T16:41:44.008Z,80.81
2022-12-08T16:44:11.343Z,81.20
2022-12-08T16:46:38.337Z,81.20
2022-12-08T16:49:09.464Z,80.93
2022-12-08T16:51:36.893Z,80.37
2022-12-08T16:54:03.954Z,80.22
2022-12-08T16:56:33.438Z,80.18
2022-12-08T16:59:02.148Z,79.99
2022-12-08T17:01:29.544Z,79.26
2022-12-08T17:04:22.954Z,78.85
2022-12-08T17:06:43.867Z,78.62
2022-12-08T17:09:14.001Z,78.54
2022-12-08T17:11:43.289Z,78.63
2022-12-08T17:14:14.559Z,78.91
2022-12-08T17:16:43.146Z,78.95
2022-12-08T17:19:12.608Z,78.91
2022-12-08T17:21:39.666Z,79.08
2022-12-08T17:24:07.114Z,79.14
2022-12-08T17:26:34.276Z,79.19
2022-12-08T17:29:02.894Z,79.08
2022-12-08T17:31:32.232Z,79.15
2022-12-08T17:34:01.967Z,79.27
2022-12-08T17:36:29.410Z,79.81
2022-12-08T17:38:57.177Z,79.79
2022-12-08T17:41:24.472Z,79.37
2022-12-08T17:43:51.756Z,79.43
2022-12-08T17:46:19.988Z,79.20
2022-12-08T17:49:05.819Z,79.32
2022-12-08T17:51:33.301Z,79.53
2022-12-08T17:54:01.061Z,79.53
2022-12-08T17:56:28.071Z,79.09
2022-12-08T17:58:55.534Z,79.15
2022-12-08T18:01:24.445Z,79.43
2022-12-08T18:03:51.768Z,79.52
2022-12-08T18:06:19.163Z,79.68
2022-12-08T18:08:46.564Z,79.54
2022-12-08T18:11:17.712Z,79.50
2022-12-08T18:13:47.137Z,79.98
2022-12-08T18:16:15.421Z,80.27
2022-12-08T18:18:43.457Z,80.87
2022-12-08T18:21:11.180Z,80.59
2022-12-08T18:23:39.811Z,80.86
2022-12-08T18:26:08.654Z,80.53
2022-12-08T18:28:37.084Z,80.83
2022-12-08T18:31:12.527Z,80.98
2022-12-08T18:33:43.413Z,81.06
2022-12-08T18:36:11.665Z,81.24
2022-12-08T18:38:39.042Z,81.07
2022-12-08T18:41:08.589Z,80.75
2022-12-08T18:43:37.070Z,81.01
2022-12-08T18:46:07.945Z,80.64
2022-12-08T18:48:40.277Z,80.38
2022-12-08T18:51:12.259Z,80.54
2022-12-08T18:53:40.152Z,80.49
2022-12-08T18:56:08.324Z,81.09
2022-12-08T18:58:37.223Z,81.59
2022-12-08T19:01:04.773Z,81.72
2022-12-08T19:03:32.016Z,82.07
2022-12-08T19:06:05.753Z,82.36
2022-12-08T19:08:33.591Z,82.46
2022-12-08T19:11:00.741Z,82.51
2022-12-08T19:13:28.141Z,82.90
2022-12-08T19:15:55.138Z,82.51
2022-12-08T19:18:22.454Z,82.61
2022-12-08T19:20:49.874Z,82.05
2022-12-08T19:23:17.135Z,81.93
2022-12-08T19:25:44.393Z,81.92
2022-12-08T19:28:11.290Z,82.17
2022-12-08T19:30:38.922Z,82.54
2022-12-08T19:33:06.461Z,82.51
2022-12-08T19:35:33.522Z,82.21
2022-12-08T19:38:00.613Z,81.64
2022-12-08T19:41:00.408Z,82.36
2022-12-08T19:43:48.633Z,83.46
2022-12-08T19:46:17.360Z,83.23
2022-12-08T19:48:44.968Z,84.01
2022-12-08T19:51:12.089Z,83.71
2022-12-08T19:53:44.370Z,84.78
2022-12-08T19:56:14.202Z,85.07
2022-12-08T19:58:41.665Z,85.12
2022-12-08T20:01:08.908Z,84.41
2022-12-08T20:03:36.146Z,84.21
2022-12-08T20:06:04.572Z,84.83
2022-12-08T20:08:32.001Z,84.63
2022-12-08T20:10:59.451Z,84.67
2022-12-08T20:13:41.628Z,85.08
2022-12-08T20:16:08.728Z,85.48
2022-12-08T20:18:42.755Z,85.56
2022-12-08T20:21:12.178Z,85.44
2022-12-08T20:23:39.245Z,85.17
2022-12-08T20:26:09.777Z,85.27
2022-12-08T20:28:37.785Z,85.37
2022-12-08T20:31:05.558Z,85.25
2022-12-08T20:33:33.277Z,85.44
2022-12-08T20:36:02.294Z,85.89
2022-12-08T20:38:29.850Z,86.39
2022-12-08T20:40:58.326Z,86.59
2022-12-08T20:43:26.470Z,86.54
2022-12-08T20:45:53.609Z,86.83
2022-12-08T20:48:21.009Z,86.92
2022-12-08T20:50:51.728Z,86.82
2022-12-08T20:53:21.588Z,86.84
2022-12-08T20:55:48.606Z,87.39
2022-12-08T20:58:15.905Z,88.05
2022-12-08T21:00:43.251Z,88.55
2022-12-08T21:03:12.680Z,88.81
2022-12-08T21:05:40.385Z,88.92
2022-12-08T21:08:07.691Z,89.62
2022-12-08T21:10:39.145Z,89.72
2022-12-08T21:13:09.589Z,90.41
2022-12-08T21:15:36.984Z,90.63
2022-12-08T21:18:05.018Z,90.81
2022-12-08T21:20:32.689Z,90.94
2022-12-08T21:22:59.701Z,90.81
2022-12-08T21:25:27.391Z,90.62
2022-12-08T21:27:54.676Z,90.51
2022-12-08T21:30:22.771Z,90.46
2022-12-08T21:32:50.281Z,90.21
2022-12-08T21:35:17.660Z,90.23
2022-12-08T21:37:44.731Z,90.37
2022-12-08T21:40:12.784Z,91.04
2022-12-08T21:42:46.252Z,91.17
2022-12-08T21:45:16.963Z,91.59
2022-12-08T21:47:45.698Z,91.85
2022-12-08T21:50:15.024Z,91.63
2022-12-08T21:52:45.687Z,91.66
2022-12-08T21:55:15.070Z,91.49
2022-12-08T21:57:43.501Z,91.63
2022-12-08T22:00:15.430Z,91.54
2022-12-08T22:02:43.594Z,91.56
2022-12-08T22:05:11.548Z,91.47
2022-12-08T22:07:39.992Z,91.36
2022-12-08T22:10:09.201Z,91.43
2022-12-08T22:12:37.163Z,91.29
2022-12-08T22:15:06.605Z,91.40
2022-12-08T22:17:41.397Z,91.33
2022-12-08T22:20:12.928Z,91.55
2022-12-08T22:22:41.030Z,91.68
2022-12-08T22:25:12.621Z,91.70
2022-12-08T22:27:41.088Z,91.61
2022-12-08T22:30:10.627Z,91.41
2022-12-08T22:32:38.602Z,91.14
2022-12-08T22:35:06.557Z,91.24
2022-12-08T22:37:34.230Z,91.24
2022-12-08T22:40:01.444Z,91.31
2022-12-08T22:42:30.402Z,91.28
2022-12-08T22:44:57.809Z,91.26
2022-12-08T22:47:24.774Z,91.26
2022-12-08T22:49:52.391Z,91.22
2022-12-08T22:52:19.561Z,91.15
2022-12-08T22:54:47.328Z,91.14
2022-12-08T22:57:14.874Z,91.86
2022-12-08T22:59:42.646Z,91.88
2022-12-08T23:02:10.946Z,92.08
2022-12-08T23:04:38.770Z,92.50
2022-12-08T23:07:06.044Z,92.89
2022-12-08T23:09:33.315Z,93.16
2022-12-08T23:12:00.785Z,93.33
2022-12-08T23:14:28.175Z,93.10
2022-12-08T23:16:55.497Z,93.18
2022-12-08T23:19:22.713Z,92.93
2022-12-08T23:21:49.997Z,93.19
2022-12-08T23:24:17.439Z,93.38
2022-12-08T23:26:44.898Z,93.35
2022-12-08T23:29:12.120Z,93.07
2022-12-08T23:31:39.598Z,92.72
2022-12-08T23:34:07.386Z,92.64
2022-12-08T23:36:35.185Z,92.58
2022-12-08T23:39:02.428Z,92.35
2022-12-08T23:41:29.574Z,92.47
2022-12-08T23:43:56.477Z,92.67
2022-12-08T23:46:23.809Z,92.75
2022-12-08T23:48:51.668Z,93.05
2022-12-08T23:51:19.690Z,93.12
2022-12-08T23:53:47.107Z,93.05
2022-12-08T23:56:17.054Z,92.97
2022-12-08T23:58:45.068Z,93.29
